Tropical Cyclones
[Index]
Main Index Home Page Stock Weather Photos Extreme Storms Discussion Storm News and Storm Chasing Reports Tropical Cyclones / Hurricanes / Typhoons Weather Data and Links Wild Fires / Bushfires Weather Observation Techniques Weather Picture Catalogue Tornado Pictures and Reports Stock Video Footage and DVDs for sale
Season 2007-2008 Tropical Cyclone ROSIE Track Map
Season 2007-2008 Summaries: [BoM-AU] [JTWC-AU] [JTWC-SIO] [JTWC-SPAC] [JTWC-SH]
<<- Previous TC | JTWC 2007-2008 Season | Next TC ->>

click for intensity scale information  Lat/long Grid: Show Hide

 Date Labels: Show Hide

Joint Typhoon Warning Centre Cyclone Data

Name: ROSIE

20 Apr 2008 00:00 UTC to 24 Apr 2008 06:00 UTC

    date/time    lat    long     hPa   cat  kts
2008-04-20 00    8.4    96.3    1007         20          
2008-04-20 06    8.7    96.8    1007         20          
2008-04-20 12    8.9    97.7    1007         20          
2008-04-20 18    9.2    98.7    1006         20          
2008-04-21 00    8.9    99.9    1004         25          
2008-04-21 06    9.0   101.1    1004         25          
2008-04-21 12    9.5   102.6    1000         30          
2008-04-21 18   10.3   103.9     993    1    40          
2008-04-22 00   10.8   104.8     985    1    50          
2008-04-22 02   10.9   105.0     985    1    50          
2008-04-22 04   10.8   105.2     985    1    50          
2008-04-22 06   10.6   105.3     985    1    50          
2008-04-22 10   10.5   105.5     985    1    50          
2008-04-22 12   10.5   105.7     989    1    45          
2008-04-22 18   10.7   106.0     989    1    45          
2008-04-23 00   11.1   106.4     989    1    45          
2008-04-23 06   11.7   106.7     989    1    45          
2008-04-23 12   12.4   106.8     993    1    40          
2008-04-23 18   13.1   106.8     993    1    40          
2008-04-24 00   13.8   106.7     996         35          
2008-04-24 06   14.8   106.4    1000         30          
Winds are 1-min average.

Tropical cyclone tracks developed by Michael Bath using data from the Joint Typhoon Warning Centre Best Tracks and Google Maps.


[Australian Severe Weather index] [Copyright Notice] [Email Contacts] [Search This Site] [Privacy Policy]
Document: tropical_cyclone_rosie.htm Updated: 28 June 2017